Time;durP1;ratioP1;P1;durP2;ratioP2;P2;SDS_P1;SDS_P2;PMS_P1;PMS_P2;Temp;Humidity;BMP_temperature;BMP_pressure;BME280_temperature;BME280_humidity;BME280_pressure;Samples;Min_cycle;Max_cycle;Signal;HPM_P1;HPM_P2
2023/12/10 00:00:59;;;;;;;29.13;4.40;;;;;;;;;;5005265;28;20050;-75
2023/12/10 00:03:26;;;;;;;32.20;5.18;;;;;;;;;;4993912;28;20043;-75
2023/12/10 00:05:52;;;;;;;33.00;5.38;;;;;;;;;;5005098;28;20042;-75
2023/12/10 00:08:18;;;;;;;31.10;5.13;;;;;;;;;;4996684;28;20451;-75
2023/12/10 00:10:44;;;;;;;35.72;5.40;;;;;;;;;;4996613;28;20529;-75
2023/12/10 00:13:10;;;;;;;36.38;6.05;;;;;;;;;;5008289;28;20049;-75
2023/12/10 00:15:39;;;;;;;30.30;4.82;;;;;;;;;;4993798;28;20047;-75
2023/12/10 00:18:06;;;;;;;26.02;4.88;;;;;;;;;;4993685;28;20496;-75
2023/12/10 00:20:33;;;;;;;34.05;5.10;;;;;;;;;;4995249;28;20062;-75
2023/12/10 00:22:59;;;;;;;32.88;4.85;;;;;;;;;;4997005;28;20136;-74
2023/12/10 00:25:26;;;;;;;26.40;5.07;;;;;;;;;;4993694;28;20046;-75
2023/12/10 00:27:52;;;;;;;36.45;5.88;;;;;;;;;;4995654;28;20526;-75
2023/12/10 00:30:18;;;;;;;30.80;5.78;;;;;;;;;;5011446;28;20558;-75
2023/12/10 00:32:44;;;;;;;32.67;4.97;;;;;;;;;;5012744;28;20121;-75
2023/12/10 00:35:11;;;;;;;25.98;4.47;;;;;;;;;;5012880;28;20042;-75
2023/12/10 00:37:37;;;;;;;30.83;5.32;;;;;;;;;;5002472;28;20047;-75
2023/12/10 00:40:06;;;;;;;32.50;5.03;;;;;;;;;;4993480;28;20093;-75
2023/12/10 00:42:32;;;;;;;32.45;5.53;;;;;;;;;;5008149;28;20042;-75
2023/12/10 00:44:58;;;;;;;31.48;5.18;;;;;;;;;;5012435;28;20030;-75
2023/12/10 00:47:24;;;;;;;34.05;5.25;;;;;;;;;;5008551;28;20039;-75
2023/12/10 00:49:50;;;;;;;33.00;4.70;;;;;;;;;;4993537;28;20050;-75
2023/12/10 00:52:16;;;;;;;30.38;5.22;;;;;;;;;;4997439;28;20053;-75
2023/12/10 00:54:42;;;;;;;39.42;5.18;;;;;;;;;;5012085;28;20057;-75
2023/12/10 00:57:12;;;;;;;35.05;5.38;;;;;;;;;;5014574;28;20046;-75
2023/12/10 00:59:38;;;;;;;34.20;4.80;;;;;;;;;;5017104;28;20049;-75
2023/12/10 01:02:04;;;;;;;38.33;5.45;;;;;;;;;;5002742;28;20077;-75
2023/12/10 01:04:30;;;;;;;34.03;5.82;;;;;;;;;;4997116;28;20492;-75
2023/12/10 01:06:56;;;;;;;38.22;6.22;;;;;;;;;;4997994;28;20423;-75
2023/12/10 01:09:22;;;;;;;30.25;5.05;;;;;;;;;;5013256;28;20046;-75
2023/12/10 01:11:48;;;;;;;37.00;6.05;;;;;;;;;;5016796;28;20415;-75
2023/12/10 01:14:15;;;;;;;29.90;5.00;;;;;;;;;;4997519;28;20049;-75
2023/12/10 01:16:41;;;;;;;30.27;4.88;;;;;;;;;;4997213;28;20046;-75
2023/12/10 01:19:07;;;;;;;21.55;4.05;;;;;;;;;;5009094;28;20053;-75
2023/12/10 01:21:33;;;;;;;23.55;4.47;;;;;;;;;;5015433;28;20046;-75
2023/12/10 01:24:00;;;;;;;28.00;3.72;;;;;;;;;;5011765;28;20046;-75
2023/12/10 01:26:26;;;;;;;27.02;4.13;;;;;;;;;;5002995;28;20057;-75
2023/12/10 01:28:52;;;;;;;29.50;4.32;;;;;;;;;;5014058;28;20447;-75
2023/12/10 01:31:18;;;;;;;25.92;4.05;;;;;;;;;;5005425;28;20064;-75
2023/12/10 01:33:44;;;;;;;25.95;4.28;;;;;;;;;;5015871;28;20058;-75
2023/12/10 01:36:21;;;;;;;25.50;4.22;;;;;;;;;;5015894;28;20054;-75
2023/12/10 01:38:47;;;;;;;28.85;3.83;;;;;;;;;;5015233;28;20385;-75
2023/12/10 01:41:13;;;;;;;24.48;4.60;;;;;;;;;;5015808;28;20046;-75
2023/12/10 01:43:39;;;;;;;24.77;4.55;;;;;;;;;;5014422;28;20050;-75
2023/12/10 01:46:05;;;;;;;24.35;3.88;;;;;;;;;;5015985;28;20050;-75
2023/12/10 01:48:32;;;;;;;28.42;4.68;;;;;;;;;;5010831;28;20050;-75
2023/12/10 01:50:58;;;;;;;24.45;4.28;;;;;;;;;;5015262;28;20053;-75
2023/12/10 01:53:25;;;;;;;24.95;4.68;;;;;;;;;;5010750;28;20088;-75
2023/12/10 01:55:51;;;;;;;28.33;3.92;;;;;;;;;;5015616;28;20521;-75
2023/12/10 01:58:17;;;;;;;29.85;4.70;;;;;;;;;;5015585;28;20080;-75
2023/12/10 02:00:44;;;;;;;30.65;5.00;;;;;;;;;;5014072;28;20507;-75
2023/12/10 02:03:11;;;;;;;28.40;4.68;;;;;;;;;;4996288;28;20065;-75
2023/12/10 02:05:37;;;;;;;21.75;4.38;;;;;;;;;;5003794;28;20453;-75
2023/12/10 02:08:03;;;;;;;30.13;4.80;;;;;;;;;;5004153;28;20046;-75
2023/12/10 02:10:29;;;;;;;24.52;4.15;;;;;;;;;;4999436;28;20061;-75
2023/12/10 02:12:55;;;;;;;29.70;3.78;;;;;;;;;;4995889;28;20050;-75
2023/12/10 02:15:21;;;;;;;29.17;4.35;;;;;;;;;;5001969;28;20050;-75
2023/12/10 02:17:48;;;;;;;31.15;5.43;;;;;;;;;;5000209;28;20403;-75
2023/12/10 02:20:15;;;;;;;25.55;4.80;;;;;;;;;;5011394;28;20050;-75
2023/12/10 02:22:53;;;;;;;27.10;4.05;;;;;;;;;;5013969;28;20568;-75
2023/12/10 02:25:38;;;;;;;25.85;4.35;;;;;;;;;;5015298;28;20050;-75
2023/12/10 02:28:05;;;;;;;26.73;3.95;;;;;;;;;;5015252;28;20046;-75
2023/12/10 02:30:32;;;;;;;28.25;4.03;;;;;;;;;;5010600;28;20117;-75
2023/12/10 02:32:58;;;;;;;29.35;4.50;;;;;;;;;;4979640;28;20038;-75
2023/12/10 02:35:24;;;;;;;23.95;4.18;;;;;;;;;;5005843;28;20487;-75
2023/12/10 02:37:50;;;;;;;22.50;4.88;;;;;;;;;;5007585;28;20046;-75
2023/12/10 02:40:17;;;;;;;24.58;4.22;;;;;;;;;;5002776;28;20046;-75
2023/12/10 02:42:43;;;;;;;27.27;4.53;;;;;;;;;;5008466;28;20117;-75
2023/12/10 02:45:09;;;;;;;29.65;5.03;;;;;;;;;;4995400;28;20042;-74
2023/12/10 02:47:36;;;;;;;28.13;4.57;;;;;;;;;;5007860;28;20045;-75
2023/12/10 02:50:03;;;;;;;24.08;4.15;;;;;;;;;;5014583;28;20046;-75
2023/12/10 02:52:29;;;;;;;32.92;4.32;;;;;;;;;;5013815;28;20034;-75
2023/12/10 02:54:55;;;;;;;27.00;4.35;;;;;;;;;;5007102;28;20046;-75
2023/12/10 02:57:22;;;;;;;28.40;4.30;;;;;;;;;;4998343;28;20073;-75
2023/12/10 02:59:48;;;;;;;28.23;4.13;;;;;;;;;;4998790;28;20488;-75
2023/12/10 03:02:14;;;;;;;28.25;4.10;;;;;;;;;;5001749;28;20049;-75
2023/12/10 03:04:40;;;;;;;29.83;4.15;;;;;;;;;;5006960;28;20502;-75
2023/12/10 03:07:06;;;;;;;28.08;4.40;;;;;;;;;;5014525;28;20068;-75
2023/12/10 03:09:32;;;;;;;27.65;4.13;;;;;;;;;;5013517;28;20054;-75
2023/12/10 03:11:58;;;;;;;19.38;3.90;;;;;;;;;;4995345;28;20125;-75
2023/12/10 03:14:24;;;;;;;28.00;4.60;;;;;;;;;;4995194;28;20056;-75
2023/12/10 03:16:50;;;;;;;24.55;4.75;;;;;;;;;;4995933;28;20042;-75
2023/12/10 03:19:17;;;;;;;32.63;4.07;;;;;;;;;;4994537;28;20058;-75
2023/12/10 03:21:43;;;;;;;24.10;4.78;;;;;;;;;;5013119;28;20050;-75
2023/12/10 03:24:09;;;;;;;24.90;4.32;;;;;;;;;;5013948;28;20726;-75
2023/12/10 03:26:35;;;;;;;23.13;4.05;;;;;;;;;;5007033;28;20046;-75
2023/12/10 03:29:01;;;;;;;22.40;4.53;;;;;;;;;;5010736;28;20057;-75
2023/12/10 03:31:27;;;;;;;32.15;5.10;;;;;;;;;;5002389;28;20046;-75
2023/12/10 03:33:53;;;;;;;27.15;3.70;;;;;;;;;;5012501;28;20042;-75
2023/12/10 03:36:19;;;;;;;23.77;3.58;;;;;;;;;;5005121;28;20042;-75
2023/12/10 03:38:47;;;;;;;28.70;5.22;;;;;;;;;;5005880;28;20057;-75
2023/12/10 03:41:13;;;;;;;24.02;4.25;;;;;;;;;;5009545;28;20054;-75
2023/12/10 03:43:39;;;;;;;21.55;4.45;;;;;;;;;;5004418;28;20084;-75
2023/12/10 03:46:05;;;;;;;26.05;4.75;;;;;;;;;;5014114;28;20453;-75
2023/12/10 03:48:31;;;;;;;26.88;4.47;;;;;;;;;;5011029;28;20046;-75
2023/12/10 03:50:57;;;;;;;23.33;4.47;;;;;;;;;;4997150;28;20042;-75
2023/12/10 03:53:23;;;;;;;31.45;5.85;;;;;;;;;;5013810;28;20042;-75
2023/12/10 03:55:49;;;;;;;23.27;4.80;;;;;;;;;;4998816;28;20078;-75
2023/12/10 03:58:16;;;;;;;26.08;4.00;;;;;;;;;;5005464;28;20087;-75
2023/12/10 04:00:42;;;;;;;22.55;4.03;;;;;;;;;;4999459;28;20038;-75
2023/12/10 04:03:08;;;;;;;19.88;3.80;;;;;;;;;;4994085;28;20074;-75
2023/12/10 04:05:35;;;;;;;23.83;3.78;;;;;;;;;;5010683;28;20045;-75
2023/12/10 04:08:01;;;;;;;25.70;3.63;;;;;;;;;;5013838;28;20054;-75
2023/12/10 04:10:27;;;;;;;23.70;3.72;;;;;;;;;;5006423;28;20107;-75
2023/12/10 04:12:53;;;;;;;18.35;3.08;;;;;;;;;;4996790;28;20130;-75
2023/12/10 04:15:19;;;;;;;20.02;3.30;;;;;;;;;;4999659;28;20034;-75
2023/12/10 04:17:46;;;;;;;16.10;2.80;;;;;;;;;;5004913;28;20046;-75
2023/12/10 04:20:12;;;;;;;15.20;2.92;;;;;;;;;;5003360;28;20500;-75
2023/12/10 04:22:38;;;;;;;18.33;2.95;;;;;;;;;;5001584;28;20041;-74
2023/12/10 04:25:04;;;;;;;21.70;3.40;;;;;;;;;;5012603;28;20042;-75
2023/12/10 04:27:30;;;;;;;19.77;2.92;;;;;;;;;;5013050;28;20041;-75
2023/12/10 04:29:56;;;;;;;14.40;2.90;;;;;;;;;;5003981;28;20061;-75
2023/12/10 04:32:22;;;;;;;16.63;2.58;;;;;;;;;;4999754;28;20050;-75
2023/12/10 04:34:49;;;;;;;13.75;2.30;;;;;;;;;;5000564;28;20506;-75
2023/12/10 04:37:15;;;;;;;21.73;2.97;;;;;;;;;;5000221;28;20518;-75
2023/12/10 04:39:41;;;;;;;16.25;2.53;;;;;;;;;;5012886;28;20517;-75
2023/12/10 04:42:07;;;;;;;17.05;2.63;;;;;;;;;;5003235;28;20049;-75
2023/12/10 04:44:33;;;;;;;14.90;2.58;;;;;;;;;;5002422;28;20416;-75
2023/12/10 04:46:59;;;;;;;12.10;2.17;;;;;;;;;;5004204;28;20046;-74
2023/12/10 04:49:25;;;;;;;16.25;2.30;;;;;;;;;;4996532;28;20043;-75
2023/12/10 04:51:52;;;;;;;13.75;2.42;;;;;;;;;;4999071;28;20562;-75
2023/12/10 04:54:18;;;;;;;13.20;2.30;;;;;;;;;;4993949;28;20492;-75
2023/12/10 04:56:44;;;;;;;15.75;2.53;;;;;;;;;;4993778;28;20034;-75
2023/12/10 04:59:10;;;;;;;16.77;2.28;;;;;;;;;;5001229;28;20052;-75
2023/12/10 05:01:36;;;;;;;11.73;2.08;;;;;;;;;;5012383;28;20073;-75
2023/12/10 05:04:02;;;;;;;12.25;2.50;;;;;;;;;;5007759;28;20170;-75
2023/12/10 05:06:32;;;;;;;13.88;2.78;;;;;;;;;;5001139;28;20038;-75
2023/12/10 05:08:58;;;;;;;15.25;2.70;;;;;;;;;;4993531;28;20050;-75
2023/12/10 05:11:24;;;;;;;14.38;2.70;;;;;;;;;;5006427;28;20053;-75
2023/12/10 05:13:51;;;;;;;17.80;2.80;;;;;;;;;;5008411;28;20057;-75
2023/12/10 05:16:17;;;;;;;14.27;2.75;;;;;;;;;;5012484;28;20041;-75
2023/12/10 05:18:43;;;;;;;18.55;2.92;;;;;;;;;;5005484;28;20103;-75
2023/12/10 05:21:09;;;;;;;14.52;2.65;;;;;;;;;;4993224;28;20054;-75
2023/12/10 05:23:35;;;;;;;17.08;2.75;;;;;;;;;;5003957;28;20038;-75
2023/12/10 05:26:01;;;;;;;16.00;2.58;;;;;;;;;;5012265;28;20049;-75
2023/12/10 05:28:27;;;;;;;17.92;2.80;;;;;;;;;;5005739;28;20133;-74
2023/12/10 05:30:53;;;;;;;14.45;2.17;;;;;;;;;;5006236;28;20046;-75
2023/12/10 05:33:19;;;;;;;17.67;2.92;;;;;;;;;;4996115;28;20046;-74
2023/12/10 05:35:45;;;;;;;9.68;2.15;;;;;;;;;;5005097;28;20050;-74
2023/12/10 05:38:11;;;;;;;17.70;3.05;;;;;;;;;;5012830;28;20050;-75
2023/12/10 05:40:37;;;;;;;13.13;2.10;;;;;;;;;;5012350;28;20054;-74
2023/12/10 05:43:04;;;;;;;12.73;2.25;;;;;;;;;;5013643;28;20499;-74
2023/12/10 05:45:30;;;;;;;11.88;2.30;;;;;;;;;;5014060;28;20483;-74
2023/12/10 05:47:56;;;;;;;14.23;1.73;;;;;;;;;;5002167;28;20049;-74
2023/12/10 05:50:22;;;;;;;15.05;2.38;;;;;;;;;;5014008;28;20081;-74
2023/12/10 05:52:48;;;;;;;14.07;2.33;;;;;;;;;;5016245;28;20054;-74
2023/12/10 05:55:15;;;;;;;15.55;2.70;;;;;;;;;;5014396;28;20096;-74
2023/12/10 05:57:41;;;;;;;11.85;2.35;;;;;;;;;;5014751;28;20053;-74
2023/12/10 06:00:07;;;;;;;9.63;1.67;;;;;;;;;;5003084;28;20072;-74
2023/12/10 06:02:33;;;;;;;10.15;2.30;;;;;;;;;;4998937;28;20484;-74
2023/12/10 06:04:59;;;;;;;12.00;2.28;;;;;;;;;;4996208;28;20060;-74
2023/12/10 06:07:26;;;;;;;13.35;2.28;;;;;;;;;;5008387;28;20056;-75
2023/12/10 06:09:52;;;;;;;14.80;2.42;;;;;;;;;;4996108;28;20534;-75
2023/12/10 06:12:18;;;;;;;10.95;1.70;;;;;;;;;;5009166;28;20052;-74
2023/12/10 06:14:44;;;;;;;11.15;2.45;;;;;;;;;;5004480;28;20046;-74
2023/12/10 06:17:10;;;;;;;14.18;2.20;;;;;;;;;;5011713;28;20116;-74
2023/12/10 06:19:36;;;;;;;10.10;1.77;;;;;;;;;;5010836;28;20054;-74
2023/12/10 06:22:02;;;;;;;9.93;1.70;;;;;;;;;;5015087;28;20066;-74
2023/12/10 06:24:29;;;;;;;13.82;2.30;;;;;;;;;;5000799;28;20077;-74
2023/12/10 06:26:55;;;;;;;10.77;2.15;;;;;;;;;;4995869;28;20065;-74
2023/12/10 06:29:22;;;;;;;12.57;2.20;;;;;;;;;;5007999;28;20479;-74
2023/12/10 06:31:48;;;;;;;13.45;2.13;;;;;;;;;;5013464;28;20045;-74
2023/12/10 06:34:14;;;;;;;13.88;1.90;;;;;;;;;;5002832;28;20043;-74
2023/12/10 06:36:40;;;;;;;10.25;1.85;;;;;;;;;;4995631;28;20038;-74
2023/12/10 06:39:07;;;;;;;14.30;2.38;;;;;;;;;;4995504;28;20038;-74
2023/12/10 06:41:33;;;;;;;15.93;2.60;;;;;;;;;;5003435;28;20495;-74
2023/12/10 06:43:59;;;;;;;14.65;2.85;;;;;;;;;;5012287;28;20054;-75
2023/12/10 06:46:25;;;;;;;18.85;2.53;;;;;;;;;;5007323;28;20522;-74
2023/12/10 06:48:51;;;;;;;13.50;2.38;;;;;;;;;;5014217;28;20054;-74
2023/12/10 06:51:17;;;;;;;15.65;2.55;;;;;;;;;;5002121;28;20046;-74
2023/12/10 06:53:43;;;;;;;17.63;2.53;;;;;;;;;;5012539;28;20048;-74
2023/12/10 06:56:09;;;;;;;15.90;2.50;;;;;;;;;;5014576;28;20046;-74
2023/12/10 06:58:36;;;;;;;18.02;3.08;;;;;;;;;;5013391;28;20452;-75
2023/12/10 07:01:03;;;;;;;24.48;3.03;;;;;;;;;;5014694;28;20077;-74
2023/12/10 07:03:29;;;;;;;17.92;2.53;;;;;;;;;;5010517;28;20065;-74
2023/12/10 07:05:55;;;;;;;19.13;2.70;;;;;;;;;;5010012;28;20046;-74
2023/12/10 07:08:21;;;;;;;28.90;2.85;;;;;;;;;;5013516;28;20080;-74
2023/12/10 07:10:47;;;;;;;21.60;2.97;;;;;;;;;;5006827;28;20049;-74
2023/12/10 07:13:13;;;;;;;22.73;3.40;;;;;;;;;;5009302;28;20104;-74
2023/12/10 07:15:42;;;;;;;15.15;2.50;;;;;;;;;;5001063;28;20070;-74
2023/12/10 07:18:08;;;;;;;17.40;2.13;;;;;;;;;;5004032;28;20399;-75
2023/12/10 07:20:34;;;;;;;19.20;2.92;;;;;;;;;;5004917;28;20103;-74
2023/12/10 07:23:00;;;;;;;17.40;2.88;;;;;;;;;;5011276;28;20496;-74
2023/12/10 07:25:27;;;;;;;17.60;2.80;;;;;;;;;;4999450;28;20054;-75
2023/12/10 07:27:53;;;;;;;23.30;3.17;;;;;;;;;;5006427;28;20042;-74
2023/12/10 07:30:19;;;;;;;19.38;3.00;;;;;;;;;;5007961;28;20128;-75
2023/12/10 07:32:46;;;;;;;26.75;3.58;;;;;;;;;;5000956;28;20046;-75
2023/12/10 07:35:12;;;;;;;25.95;3.75;;;;;;;;;;5009978;28;20054;-75
2023/12/10 07:37:38;;;;;;;32.25;3.88;;;;;;;;;;5010671;28;20060;-75
2023/12/10 07:40:04;;;;;;;22.35;4.32;;;;;;;;;;5008755;28;20041;-75
2023/12/10 07:42:30;;;;;;;24.77;3.83;;;;;;;;;;5007625;28;20077;-75
2023/12/10 07:44:56;;;;;;;22.15;3.33;;;;;;;;;;4997749;28;20515;-75
2023/12/10 07:47:23;;;;;;;22.15;3.40;;;;;;;;;;5003403;28;20045;-75
2023/12/10 07:49:49;;;;;;;23.17;3.20;;;;;;;;;;5001487;28;20042;-74
2023/12/10 07:52:15;;;;;;;22.35;2.72;;;;;;;;;;5007612;28;20065;-75
2023/12/10 07:54:41;;;;;;;18.65;2.53;;;;;;;;;;5009244;28;20046;-75
2023/12/10 07:57:07;;;;;;;19.35;2.55;;;;;;;;;;5000620;28;20447;-75
2023/12/10 07:59:33;;;;;;;13.88;1.90;;;;;;;;;;5000849;28;20052;-75
2023/12/10 08:01:59;;;;;;;12.80;1.85;;;;;;;;;;5006309;28;20054;-75
2023/12/10 08:04:25;;;;;;;12.30;2.17;;;;;;;;;;5011051;28;20046;-75
2023/12/10 08:06:51;;;;;;;14.82;2.13;;;;;;;;;;5011675;28;20129;-75
2023/12/10 08:09:17;;;;;;;15.73;2.58;;;;;;;;;;5012194;28;20042;-75
2023/12/10 08:11:44;;;;;;;13.32;2.08;;;;;;;;;;5010947;28;20093;-75
2023/12/10 08:14:10;;;;;;;16.30;2.45;;;;;;;;;;5009785;28;20125;-75
2023/12/10 08:16:36;;;;;;;19.02;2.75;;;;;;;;;;5005713;28;20050;-75
2023/12/10 08:19:02;;;;;;;11.60;2.55;;;;;;;;;;5011908;28;20160;-75
2023/12/10 08:21:29;;;;;;;13.95;2.25;;;;;;;;;;5009747;28;20121;-75
2023/12/10 08:23:55;;;;;;;15.73;2.45;;;;;;;;;;4998921;28;20176;-75
2023/12/10 08:26:21;;;;;;;17.65;2.50;;;;;;;;;;5007098;28;20060;-75
2023/12/10 08:28:48;;;;;;;14.70;1.83;;;;;;;;;;5010644;28;20131;-75
2023/12/10 08:31:14;;;;;;;16.42;2.53;;;;;;;;;;5003145;28;20061;-75
2023/12/10 08:33:44;;;;;;;12.70;2.30;;;;;;;;;;5007608;28;20041;-75
2023/12/10 08:36:10;;;;;;;19.42;2.92;;;;;;;;;;5009583;28;21045;-75
2023/12/10 08:38:36;;;;;;;19.42;2.30;;;;;;;;;;5011886;28;20138;-75
2023/12/10 08:41:02;;;;;;;13.40;2.03;;;;;;;;;;5011942;28;20076;-75
2023/12/10 08:43:30;;;;;;;19.05;2.50;;;;;;;;;;5009588;28;20064;-75
2023/12/10 08:45:57;;;;;;;19.92;3.03;;;;;;;;;;5009624;28;20050;-75
2023/12/10 08:48:23;;;;;;;19.17;3.47;;;;;;;;;;5010194;28;20511;-75
2023/12/10 08:50:49;;;;;;;15.50;2.20;;;;;;;;;;5012216;28;20125;-75
2023/12/10 08:53:15;;;;;;;21.17;3.65;;;;;;;;;;5002615;28;20053;-75
2023/12/10 08:55:42;;;;;;;15.88;3.47;;;;;;;;;;4996230;28;20060;-75
2023/12/10 08:58:08;;;;;;;25.63;4.55;;;;;;;;;;5010762;28;20508;-75
2023/12/10 09:00:34;;;;;;;16.30;2.72;;;;;;;;;;5011454;28;20046;-75
2023/12/10 09:03:00;;;;;;;20.38;3.22;;;;;;;;;;4994468;28;20057;-75
2023/12/10 09:05:26;;;;;;;21.42;3.67;;;;;;;;;;5000770;28;20045;-75
2023/12/10 09:07:52;;;;;;;16.52;2.75;;;;;;;;;;5007763;28;20305;-75
2023/12/10 09:10:18;;;;;;;19.45;2.95;;;;;;;;;;5011906;28;20434;-75
2023/12/10 09:12:44;;;;;;;18.70;3.38;;;;;;;;;;4999888;28;20073;-75
2023/12/10 09:15:11;;;;;;;25.38;3.42;;;;;;;;;;4995733;28;20129;-74
2023/12/10 09:17:37;;;;;;;19.48;2.75;;;;;;;;;;5006641;28;20486;-75
2023/12/10 09:20:04;;;;;;;21.35;3.05;;;;;;;;;;5005852;28;20054;-75
2023/12/10 09:22:30;;;;;;;24.90;3.60;;;;;;;;;;5014724;28;20050;-75
2023/12/10 09:24:56;;;;;;;22.95;2.55;;;;;;;;;;5005509;28;20104;-75
2023/12/10 09:27:22;;;;;;;18.95;2.90;;;;;;;;;;5015534;28;20053;-75
2023/12/10 09:29:49;;;;;;;19.48;3.00;;;;;;;;;;5006242;28;20092;-75
2023/12/10 09:32:16;;;;;;;26.10;3.47;;;;;;;;;;5012367;28;20576;-75
2023/12/10 09:34:43;;;;;;;21.38;2.83;;;;;;;;;;5015533;28;20066;-74
2023/12/10 09:37:13;;;;;;;22.70;2.90;;;;;;;;;;5003414;28;20097;-75
2023/12/10 09:39:39;;;;;;;21.83;3.30;;;;;;;;;;5010580;28;20054;-75
2023/12/10 09:42:05;;;;;;;21.30;2.90;;;;;;;;;;5014058;28;20081;-75
2023/12/10 09:44:32;;;;;;;22.90;3.20;;;;;;;;;;5008847;28;20380;-75
2023/12/10 09:46:58;;;;;;;19.85;3.28;;;;;;;;;;5007096;28;20341;-74
2023/12/10 09:49:25;;;;;;;22.88;3.92;;;;;;;;;;5010603;28;20434;-76
2023/12/10 09:51:51;;;;;;;31.45;4.68;;;;;;;;;;5006849;28;20062;-74
2023/12/10 09:54:20;;;;;;;28.30;4.30;;;;;;;;;;5014729;28;20492;-74
2023/12/10 09:56:48;;;;;;;32.85;4.80;;;;;;;;;;5012903;28;20054;-74
2023/12/10 09:59:14;;;;;;;28.55;4.35;;;;;;;;;;5012671;28;20108;-74
2023/12/10 10:01:44;;;;;;;35.30;4.82;;;;;;;;;;5010953;28;20034;-75
2023/12/10 10:04:11;;;;;;;32.83;5.20;;;;;;;;;;5014713;28;20076;-75
2023/12/10 10:06:37;;;;;;;31.50;5.40;;;;;;;;;;5006697;28;20132;-74
2023/12/10 10:09:04;;;;;;;34.08;5.22;;;;;;;;;;5013691;28;20060;-74
2023/12/10 10:11:30;;;;;;;33.50;5.07;;;;;;;;;;5015127;28;20052;-74
2023/12/10 10:13:56;;;;;;;40.65;5.38;;;;;;;;;;5005912;28;20045;-74
2023/12/10 10:16:22;;;;;;;32.53;5.10;;;;;;;;;;5009226;28;20050;-75
2023/12/10 10:18:48;;;;;;;29.88;5.55;;;;;;;;;;5011219;28;20058;-75
2023/12/10 10:21:15;;;;;;;39.72;4.85;;;;;;;;;;5010828;28;20076;-75
2023/12/10 10:23:42;;;;;;;31.92;4.97;;;;;;;;;;5009533;28;20065;-75
2023/12/10 10:26:10;;;;;;;31.42;5.10;;;;;;;;;;5014032;28;20065;-75
2023/12/10 10:28:37;;;;;;;39.13;6.05;;;;;;;;;;5013056;28;20097;-75
2023/12/10 10:31:03;;;;;;;26.95;4.65;;;;;;;;;;5013594;28;20137;-75
2023/12/10 10:33:29;;;;;;;27.77;4.28;;;;;;;;;;5008256;28;20065;-75
2023/12/10 10:35:56;;;;;;;34.28;5.97;;;;;;;;;;5013891;28;20050;-75
2023/12/10 10:38:22;;;;;;;30.77;5.38;;;;;;;;;;5010266;28;20069;-75
2023/12/10 10:40:49;;;;;;;35.35;6.20;;;;;;;;;;5009016;28;20429;-75
2023/12/10 10:43:16;;;;;;;36.50;5.72;;;;;;;;;;5005253;28;20057;-75
2023/12/10 10:45:42;;;;;;;26.15;5.13;;;;;;;;;;5011582;28;20073;-75
2023/12/10 10:48:08;;;;;;;27.13;4.68;;;;;;;;;;5010502;28;20070;-75
2023/12/10 10:50:36;;;;;;;33.70;5.28;;;;;;;;;;5013498;28;20060;-75
2023/12/10 10:53:03;;;;;;;33.83;5.03;;;;;;;;;;5008038;28;20046;-75
2023/12/10 10:55:30;;;;;;;33.70;5.10;;;;;;;;;;5004946;28;20524;-75
2023/12/10 10:57:56;;;;;;;38.05;5.47;;;;;;;;;;5001144;28;20387;-75
2023/12/10 11:00:22;;;;;;;32.60;5.05;;;;;;;;;;5005371;28;20049;-75
2023/12/10 11:02:49;;;;;;;29.80;5.20;;;;;;;;;;5013311;28;20046;-75
2023/12/10 11:05:21;;;;;;;34.60;5.63;;;;;;;;;;5006759;28;20485;-75
2023/12/10 11:07:48;;;;;;;33.17;5.20;;;;;;;;;;5007326;28;20057;-75
2023/12/10 11:10:14;;;;;;;38.25;5.18;;;;;;;;;;5006189;28;20056;-75
2023/12/10 11:12:41;;;;;;;31.25;5.35;;;;;;;;;;5007140;28;20376;-75
2023/12/10 11:15:16;;;;;;;34.88;5.95;;;;;;;;;;5006246;28;20069;-75
2023/12/10 11:17:56;;;;;;;34.63;5.35;;;;;;;;;;5005124;28;20053;-75
2023/12/10 11:20:31;;;;;;;35.40;5.68;;;;;;;;;;5004888;28;20093;-75
2023/12/10 11:22:58;;;;;;;39.58;5.88;;;;;;;;;;5008188;28;20081;-75
2023/12/10 11:25:24;;;;;;;33.13;4.75;;;;;;;;;;5006646;28;20042;-75
2023/12/10 11:27:50;;;;;;;37.58;4.93;;;;;;;;;;5006101;28;20033;-75
2023/12/10 11:30:16;;;;;;;23.77;4.30;;;;;;;;;;5007685;28;20057;-75
2023/12/10 11:32:42;;;;;;;24.10;3.88;;;;;;;;;;5010248;28;20054;-75
2023/12/10 11:35:08;;;;;;;29.60;4.07;;;;;;;;;;5012372;28;20050;-74
2023/12/10 11:37:34;;;;;;;30.33;4.78;;;;;;;;;;5010861;28;20050;-75
2023/12/10 11:40:01;;;;;;;31.38;5.82;;;;;;;;;;5006150;28;20114;-75
2023/12/10 11:42:27;;;;;;;31.00;5.32;;;;;;;;;;5012598;28;20077;-74
2023/12/10 11:44:53;;;;;;;24.50;4.63;;;;;;;;;;5006123;28;20377;-75
2023/12/10 11:47:19;;;;;;;32.85;5.57;;;;;;;;;;5008357;28;20052;-75
2023/12/10 11:49:45;;;;;;;27.77;4.90;;;;;;;;;;5007565;28;20042;-75
2023/12/10 11:52:12;;;;;;;29.10;4.80;;;;;;;;;;5005547;28;20050;-74
2023/12/10 11:54:38;;;;;;;36.05;5.22;;;;;;;;;;4994868;28;20054;-76
2023/12/10 11:57:05;;;;;;;32.55;5.68;;;;;;;;;;5002765;28;20060;-75
2023/12/10 11:59:31;;;;;;;25.40;4.38;;;;;;;;;;4996713;28;20049;-74
2023/12/10 12:01:57;;;;;;;25.95;4.80;;;;;;;;;;5010991;28;20050;-75
2023/12/10 12:04:28;;;;;;;24.02;4.32;;;;;;;;;;5012931;28;20060;-75
2023/12/10 12:06:54;;;;;;;33.70;4.93;;;;;;;;;;4996618;28;20050;-74
2023/12/10 12:09:20;;;;;;;33.17;5.10;;;;;;;;;;4995974;28;20047;-74
2023/12/10 12:11:48;;;;;;;31.13;5.03;;;;;;;;;;5007577;28;20054;-74
2023/12/10 12:14:18;;;;;;;31.90;5.25;;;;;;;;;;5009722;28;20056;-74
2023/12/10 12:16:44;;;;;;;35.42;5.90;;;;;;;;;;5001592;28;20129;-75
2023/12/10 12:19:10;;;;;;;29.17;4.53;;;;;;;;;;4998552;28;20076;-75
2023/12/10 12:21:37;;;;;;;29.23;4.88;;;;;;;;;;5003657;28;20105;-75
2023/12/10 12:24:03;;;;;;;30.17;5.45;;;;;;;;;;5000045;28;20504;-75
2023/12/10 12:26:29;;;;;;;36.10;5.30;;;;;;;;;;5010490;28;20037;-75
2023/12/10 12:28:55;;;;;;;26.25;4.85;;;;;;;;;;5010570;28;20041;-75
2023/12/10 12:31:21;;;;;;;27.85;4.97;;;;;;;;;;5012053;28;20517;-75
2023/12/10 12:33:48;;;;;;;41.35;4.68;;;;;;;;;;5012344;28;20057;-75
2023/12/10 12:36:14;;;;;;;30.35;4.80;;;;;;;;;;5009841;28;20349;-74
2023/12/10 12:38:40;;;;;;;29.00;4.70;;;;;;;;;;5011302;28;20052;-74
2023/12/10 12:41:06;;;;;;;33.45;5.32;;;;;;;;;;5012623;28;20422;-75
2023/12/10 12:43:32;;;;;;;36.72;5.70;;;;;;;;;;5002823;28;20049;-74
2023/12/10 12:45:58;;;;;;;23.73;4.13;;;;;;;;;;5005702;28;20052;-74
2023/12/10 12:48:24;;;;;;;30.80;5.40;;;;;;;;;;5004513;28;20043;-74
2023/12/10 12:50:50;;;;;;;29.35;5.68;;;;;;;;;;4994295;28;20042;-74
2023/12/10 12:53:16;;;;;;;29.83;4.85;;;;;;;;;;5009354;28;20195;-74
2023/12/10 12:55:42;;;;;;;34.00;6.07;;;;;;;;;;5016371;28;20083;-74
2023/12/10 12:58:10;;;;;;;28.42;5.32;;;;;;;;;;4999784;28;20473;-74
2023/12/10 13:00:37;;;;;;;34.97;6.03;;;;;;;;;;5015341;28;20073;-74
2023/12/10 13:03:03;;;;;;;27.00;4.50;;;;;;;;;;5016010;28;20148;-74
2023/12/10 13:05:29;;;;;;;31.50;6.22;;;;;;;;;;5003841;28;20437;-74
2023/12/10 13:07:55;;;;;;;27.52;5.00;;;;;;;;;;4996638;28;20053;-74
2023/12/10 13:10:21;;;;;;;29.20;5.32;;;;;;;;;;4996639;28;20054;-75
2023/12/10 13:12:47;;;;;;;26.60;6.05;;;;;;;;;;5002028;28;20034;-74
2023/12/10 13:15:14;;;;;;;29.48;4.60;;;;;;;;;;5013433;28;20492;-74
2023/12/10 13:17:40;;;;;;;24.13;4.20;;;;;;;;;;5009720;28;20373;-74
2023/12/10 13:20:06;;;;;;;28.77;4.82;;;;;;;;;;5009218;28;20439;-74
2023/12/10 13:22:33;;;;;;;26.80;4.32;;;;;;;;;;5009399;28;20050;-74
2023/12/10 13:25:01;;;;;;;32.28;5.30;;;;;;;;;;5006890;28;20062;-74
2023/12/10 13:27:27;;;;;;;25.10;4.93;;;;;;;;;;4996960;28;20112;-74
2023/12/10 13:29:53;;;;;;;25.50;4.82;;;;;;;;;;5014092;28;20128;-74
2023/12/10 13:32:19;;;;;;;22.45;3.88;;;;;;;;;;5011148;28;20053;-74
2023/12/10 13:34:45;;;;;;;27.63;4.07;;;;;;;;;;5014738;28;20058;-74
2023/12/10 13:37:12;;;;;;;24.10;4.20;;;;;;;;;;5015774;28;20048;-74
2023/12/10 13:39:41;;;;;;;27.13;4.45;;;;;;;;;;5005002;28;20081;-74
2023/12/10 13:42:07;;;;;;;25.10;3.88;;;;;;;;;;4996864;28;20128;-75
2023/12/10 13:44:33;;;;;;;25.80;4.57;;;;;;;;;;4996076;28;20042;-74
2023/12/10 13:46:59;;;;;;;25.73;4.15;;;;;;;;;;5003489;28;20480;-74
2023/12/10 13:49:25;;;;;;;23.60;4.82;;;;;;;;;;5011186;28;20065;-74
2023/12/10 13:51:51;;;;;;;27.83;4.45;;;;;;;;;;5012024;28;20168;-74
2023/12/10 13:54:17;;;;;;;23.35;4.97;;;;;;;;;;5004609;28;20480;-75
2023/12/10 13:56:43;;;;;;;22.55;4.32;;;;;;;;;;5003894;28;20070;-74
2023/12/10 13:59:10;;;;;;;26.65;5.35;;;;;;;;;;5001259;28;20098;-75
2023/12/10 14:01:36;;;;;;;23.20;4.40;;;;;;;;;;5008469;28;20050;-75
2023/12/10 14:04:02;;;;;;;23.27;5.40;;;;;;;;;;5000984;28;20108;-75
2023/12/10 14:06:29;;;;;;;25.98;4.32;;;;;;;;;;4996828;28;21098;-75
2023/12/10 14:08:55;;;;;;;23.23;4.35;;;;;;;;;;4995422;28;20064;-75
2023/12/10 14:11:21;;;;;;;26.48;4.80;;;;;;;;;;5007512;28;20034;-75
2023/12/10 14:13:47;;;;;;;23.92;4.10;;;;;;;;;;5014730;28;20050;-75
2023/12/10 14:16:13;;;;;;;26.40;4.40;;;;;;;;;;5008832;28;20084;-75
2023/12/10 14:18:39;;;;;;;25.75;3.90;;;;;;;;;;5007902;28;20041;-75
2023/12/10 14:21:05;;;;;;;28.08;3.85;;;;;;;;;;5003118;28;20050;-73
2023/12/10 14:23:31;;;;;;;22.23;3.88;;;;;;;;;;4996218;28;20042;-75
2023/12/10 14:25:58;;;;;;;28.73;5.47;;;;;;;;;;5012348;28;20060;-75